Grete Maersk — OYCY2 — position and weather

sailwx.info

Track history (hours):
 
Tides and Currents Weather Stations Pressure Air Temp Water Temp Dewpoint Dewpoint Depression Visibility Wind Speed Wind Dir Waves Ship Positions

Grete Maersk

Last reported at 2016-Jul-28 17:07 UTC. Time now 2016-Jul-30 09:14 UTC.
Position N 30°30' E 123°05'.

MMSI: 218824136.

Date/timePositionNaut miles runAvg speedWind from/ knotsBaromVisibWave heightAir tempDewpointWater temp
2016-Jul-28 17:07N 30°30' E 123°05'1016.8
2016-Jul-28 16:30N 30°30' E 122°53'44 2.0
2016-Jul-27 18:14N 30°38' E 122°03'41 3.4
2016-Jul-27 06:27N 30°26' E 122°48'4013.7
2016-Jul-27 03:32N 29°48' E 122°35'1414.1
2016-Jul-27 02:33N 29°45' E 122°19'1212.6
2016-Jul-27 01:33N 29°54' E 122°10'1413.7
2016-Jul-27 00:33N 29°59' E 121°55'5 2.1
2016-Jul-26 22:21N 29°57' E 121°50'0 0.0
2016-Jul-26 21:34N 29°57' E 121°50'0 0.0
2016-Jul-26 20:34N 29°57' E 121°50'0 0.0
2016-Jul-26 19:28N 29°57' E 121°50'0 0.0
2016-Jul-26 18:33N 29°57' E 121°50'0 0.0
2016-Jul-26 17:34N 29°57' E 121°50'0 0.0
2016-Jul-26 16:32N 29°57' E 121°50'0 0.0
2016-Jul-26 15:33N 29°57' E 121°50'0 0.0
2016-Jul-26 14:34N 29°57' E 121°50'0 0.0
2016-Jul-26 12:26N 29°57' E 121°50'0 0.0
2016-Jul-26 11:31N 29°57' E 121°50'0 0.0
2016-Jul-26 10:34N 29°57' E 121°50'0 0.0
2016-Jul-26 09:34N 29°57' E 121°50'0 0.0
2016-Jul-26 08:33N 29°57' E 121°50'0 0.0
2016-Jul-26 07:34N 29°57' E 121°50'0 0.0
2016-Jul-26 06:34N 29°57' E 121°50'0 0.0
2016-Jul-26 05:31N 29°57' E 121°50'0 0.0
2016-Jul-26 04:32N 29°57' E 121°50'0 0.0
2016-Jul-26 03:34N 29°57' E 121°50'0 0.0
2016-Jul-26 02:30N 29°57' E 121°50'0 0.0
2016-Jul-26 01:33N 29°57' E 121°50'0 0.0
2016-Jul-26 00:33N 29°57' E 121°50'6 6.0
2016-Jul-25 23:33N 29°58' E 121°57'1212.1
2016-Jul-25 22:34N 29°55' E 122°10'1210.5
2016-Jul-25 21:24N 29°45' E 122°19'1112.0
2016-Jul-25 20:29N 29°40' E 122°30'9 9.1
2016-Jul-25 19:30N 29°33' E 122°37'1414.7
2016-Jul-25 18:33N 29°20' E 122°32'28016.1
2016-Jul-25 01:06N 25°10' E 120°08'1118.9
2016-Jul-25 00:32N 25°04' E 119°59'3918.6
2016-Jul-24 22:25N 24°40' E 119°24'1517.4
2016-Jul-24 21:33N 24°31' E 119°11'1717.5
2016-Jul-24 20:33N 24°20' E 118°56'1716.7
2016-Jul-24 19:32N 24°09' E 118°41'1717.1
2016-Jul-24 18:33N 23°58' E 118°27'1917.4
2016-Jul-24 17:29N 23°48' E 118°10'1718.1
2016-Jul-24 16:33N 23°36' E 117°57'1818.4
2016-Jul-24 15:33N 23°25' E 117°41'2118.2
2016-Jul-24 14:24N 23°11' E 117°24'1517.4
2016-Jul-24 13:32N 23°03' E 117°10'1717.0
2016-Jul-24 12:33N 22°54' E 116°55'1716.8
2016-Jul-24 11:33N 22°43' E 116°41'1816.9
2016-Jul-24 10:31N 22°34' E 116°25'14516.0
2016-Jul-24 01:27N 22°09' E 113°50'1011.5
2016-Jul-24 00:33N 22°19' E 113°48'9 0.5
2016-Jul-23 04:19N 22°28' E 113°52'7 8.8
2016-Jul-23 03:33N 22°22' E 113°50'  
Track history (hours):
 
Tides and Currents Weather Stations Pressure Air Temp Water Temp Dewpoint Dewpoint Depression Visibility Wind Speed Wind Dir Waves Ship Positions

Grete Maersk

Last reported at 2016-Jul-28 17:07 UTC. Time now 2016-Jul-30 09:14 UTC.
Position N 30°30' E 123°05'.

MMSI: 218824136.

Date/timePositionNaut miles runAvg speedWind from/ knotsBaromVisibWave heightAir tempDewpointWater temp
2016-Jul-28 17:07N 30°30' E 123°05'1016.8
2016-Jul-28 16:30N 30°30' E 122°53'44 2.0
2016-Jul-27 18:14N 30°38' E 122°03'41 3.4
2016-Jul-27 06:27N 30°26' E 122°48'4013.7
2016-Jul-27 03:32N 29°48' E 122°35'1414.1
2016-Jul-27 02:33N 29°45' E 122°19'1212.6
2016-Jul-27 01:33N 29°54' E 122°10'1413.7
2016-Jul-27 00:33N 29°59' E 121°55'5 2.1
2016-Jul-26 22:21N 29°57' E 121°50'0 0.0
2016-Jul-26 21:34N 29°57' E 121°50'0 0.0
2016-Jul-26 20:34N 29°57' E 121°50'0 0.0
2016-Jul-26 19:28N 29°57' E 121°50'0 0.0
2016-Jul-26 18:33N 29°57' E 121°50'0 0.0
2016-Jul-26 17:34N 29°57' E 121°50'0 0.0
2016-Jul-26 16:32N 29°57' E 121°50'0 0.0
2016-Jul-26 15:33N 29°57' E 121°50'0 0.0
2016-Jul-26 14:34N 29°57' E 121°50'0 0.0
2016-Jul-26 12:26N 29°57' E 121°50'0 0.0
2016-Jul-26 11:31N 29°57' E 121°50'0 0.0
2016-Jul-26 10:34N 29°57' E 121°50'0 0.0
2016-Jul-26 09:34N 29°57' E 121°50'0 0.0
2016-Jul-26 08:33N 29°57' E 121°50'0 0.0
2016-Jul-26 07:34N 29°57' E 121°50'0 0.0
2016-Jul-26 06:34N 29°57' E 121°50'0 0.0
2016-Jul-26 05:31N 29°57' E 121°50'0 0.0
2016-Jul-26 04:32N 29°57' E 121°50'0 0.0
2016-Jul-26 03:34N 29°57' E 121°50'0 0.0
2016-Jul-26 02:30N 29°57' E 121°50'0 0.0
2016-Jul-26 01:33N 29°57' E 121°50'0 0.0
2016-Jul-26 00:33N 29°57' E 121°50'6 6.0
2016-Jul-25 23:33N 29°58' E 121°57'1212.1
2016-Jul-25 22:34N 29°55' E 122°10'1210.5
2016-Jul-25 21:24N 29°45' E 122°19'1112.0
2016-Jul-25 20:29N 29°40' E 122°30'9 9.1
2016-Jul-25 19:30N 29°33' E 122°37'1414.7
2016-Jul-25 18:33N 29°20' E 122°32'28016.1
2016-Jul-25 01:06N 25°10' E 120°08'1118.9
2016-Jul-25 00:32N 25°04' E 119°59'3918.6
2016-Jul-24 22:25N 24°40' E 119°24'1517.4
2016-Jul-24 21:33N 24°31' E 119°11'1717.5
2016-Jul-24 20:33N 24°20' E 118°56'1716.7
2016-Jul-24 19:32N 24°09' E 118°41'1717.1
2016-Jul-24 18:33N 23°58' E 118°27'1917.4
2016-Jul-24 17:29N 23°48' E 118°10'1718.1
2016-Jul-24 16:33N 23°36' E 117°57'1818.4
2016-Jul-24 15:33N 23°25' E 117°41'2118.2
2016-Jul-24 14:24N 23°11' E 117°24'1517.4
2016-Jul-24 13:32N 23°03' E 117°10'1717.0
2016-Jul-24 12:33N 22°54' E 116°55'1716.8
2016-Jul-24 11:33N 22°43' E 116°41'1816.9
2016-Jul-24 10:31N 22°34' E 116°25'14516.0
2016-Jul-24 01:27N 22°09' E 113°50'1011.5
2016-Jul-24 00:33N 22°19' E 113°48'9 0.5
2016-Jul-23 04:19N 22°28' E 113°52'7 8.8
2016-Jul-23 03:33N 22°22' E 113°50'  

Dump ship's entire track history